sensor_id;sensor_type;location;lat;lon;timestamp;temperature;humidity
13268;DHT22;6702;47.068;15.458;2022-12-15T00:02:34;0.00;99.90
13268;DHT22;6702;47.068;15.458;2022-12-15T00:05:55;0.10;99.90
13268;DHT22;6702;47.068;15.458;2022-12-15T00:09:15;0.10;99.90
13268;DHT22;6702;47.068;15.458;2022-12-15T00:12:36;0.00;99.90
13268;DHT22;6702;47.068;15.458;2022-12-15T00:15:56;0.00;99.90
13268;DHT22;6702;47.068;15.458;2022-12-15T00:19:18;0.00;99.90
13268;DHT22;6702;47.068;15.458;2022-12-15T00:22:39;0.00;99.90
13268;DHT22;6702;47.068;15.458;2022-12-15T00:26:00;0.10;99.90
13268;DHT22;6702;47.068;15.458;2022-12-15T00:29:20;0.20;99.90
13268;DHT22;6702;47.068;15.458;2022-12-15T00:32:41;0.20;99.90
13268;DHT22;6702;47.068;15.458;2022-12-15T00:36:03;0.20;99.90
13268;DHT22;6702;47.068;15.458;2022-12-15T00:39:23;0.20;99.90
13268;DHT22;6702;47.068;15.458;2022-12-15T00:42:26;0.20;99.90
13268;DHT22;6702;47.068;15.458;2022-12-15T00:45:30;0.20;99.90
13268;DHT22;6702;47.068;15.458;2022-12-15T00:48:47;0.30;99.90
13268;DHT22;6702;47.068;15.458;2022-12-15T00:51:52;0.20;99.90
13268;DHT22;6702;47.068;15.458;2022-12-15T00:55:12;0.20;99.90
13268;DHT22;6702;47.068;15.458;2022-12-15T00:58:33;0.20;99.90
13268;DHT22;6702;47.068;15.458;2022-12-15T01:01:55;0.30;99.90
13268;DHT22;6702;47.068;15.458;2022-12-15T01:05:16;0.30;99.90
13268;DHT22;6702;47.068;15.458;2022-12-15T01:08:37;0.30;99.90
13268;DHT22;6702;47.068;15.458;2022-12-15T01:11:58;0.30;99.90
13268;DHT22;6702;47.068;15.458;2022-12-15T01:15:18;0.40;99.90
13268;DHT22;6702;47.068;15.458;2022-12-15T01:18:39;0.50;99.90
13268;DHT22;6702;47.068;15.458;2022-12-15T01:21:59;0.50;99.90
13268;DHT22;6702;47.068;15.458;2022-12-15T01:25:06;0.60;99.90
13268;DHT22;6702;47.068;15.458;2022-12-15T01:28:09;0.60;99.90
13268;DHT22;6702;47.068;15.458;2022-12-15T01:31:12;0.70;99.90
13268;DHT22;6702;47.068;15.458;2022-12-15T01:34:16;0.70;99.90
13268;DHT22;6702;47.068;15.458;2022-12-15T01:37:21;0.60;99.90
13268;DHT22;6702;47.068;15.458;2022-12-15T01:40:25;0.60;99.90
13268;DHT22;6702;47.068;15.458;2022-12-15T01:43:45;0.70;99.90
13268;DHT22;6702;47.068;15.458;2022-12-15T01:46:52;0.60;99.90
13268;DHT22;6702;47.068;15.458;2022-12-15T01:49:57;0.70;99.90
13268;DHT22;6702;47.068;15.458;2022-12-15T01:53:01;0.70;99.90
13268;DHT22;6702;47.068;15.458;2022-12-15T01:56:07;0.70;99.90
13268;DHT22;6702;47.068;15.458;2022-12-15T01:59:13;0.70;99.90
13268;DHT22;6702;47.068;15.458;2022-12-15T02:02:20;0.70;99.90
13268;DHT22;6702;47.068;15.458;2022-12-15T02:05:24;0.70;99.90
13268;DHT22;6702;47.068;15.458;2022-12-15T02:08:28;0.60;99.90
13268;DHT22;6702;47.068;15.458;2022-12-15T02:11:52;0.60;99.90
13268;DHT22;6702;47.068;15.458;2022-12-15T02:15:10;0.70;99.90
13268;DHT22;6702;47.068;15.458;2022-12-15T02:18:21;0.70;99.90
13268;DHT22;6702;47.068;15.458;2022-12-15T02:21:28;0.80;99.90
13268;DHT22;6702;47.068;15.458;2022-12-15T02:24:46;0.70;99.90
13268;DHT22;6702;47.068;15.458;2022-12-15T02:27:58;0.70;99.90
13268;DHT22;6702;47.068;15.458;2022-12-15T02:31:06;0.80;99.90
13268;DHT22;6702;47.068;15.458;2022-12-15T02:34:33;0.70;99.90
13268;DHT22;6702;47.068;15.458;2022-12-15T02:37:41;0.60;99.90
13268;DHT22;6702;47.068;15.458;2022-12-15T02:40:44;0.70;99.90
13268;DHT22;6702;47.068;15.458;2022-12-15T02:43:47;0.70;99.90
13268;DHT22;6702;47.068;15.458;2022-12-15T02:47:09;0.70;99.90
13268;DHT22;6702;47.068;15.458;2022-12-15T02:50:32;0.70;99.90
13268;DHT22;6702;47.068;15.458;2022-12-15T02:54:05;0.70;99.90
13268;DHT22;6702;47.068;15.458;2022-12-15T02:57:19;0.80;99.90
13268;DHT22;6702;47.068;15.458;2022-12-15T03:00:23;0.90;99.90
13268;DHT22;6702;47.068;15.458;2022-12-15T03:03:28;0.90;99.90
13268;DHT22;6702;47.068;15.458;2022-12-15T03:06:34;0.90;99.90
13268;DHT22;6702;47.068;15.458;2022-12-15T03:09:37;0.90;99.90
13268;DHT22;6702;47.068;15.458;2022-12-15T03:12:40;0.80;99.90
13268;DHT22;6702;47.068;15.458;2022-12-15T03:15:43;0.70;99.90
13268;DHT22;6702;47.068;15.458;2022-12-15T03:18:48;0.80;99.90
13268;DHT22;6702;47.068;15.458;2022-12-15T03:21:52;0.70;99.90
13268;DHT22;6702;47.068;15.458;2022-12-15T03:24:55;0.70;99.90
13268;DHT22;6702;47.068;15.458;2022-12-15T03:27:58;0.70;99.90
13268;DHT22;6702;47.068;15.458;2022-12-15T03:31:01;0.70;99.90
13268;DHT22;6702;47.068;15.458;2022-12-15T03:34:06;0.70;99.90
13268;DHT22;6702;47.068;15.458;2022-12-15T03:37:09;0.70;99.90
13268;DHT22;6702;47.068;15.458;2022-12-15T03:40:12;0.70;99.90
13268;DHT22;6702;47.068;15.458;2022-12-15T03:43:15;0.70;99.90
13268;DHT22;6702;47.068;15.458;2022-12-15T03:46:18;0.80;99.90
13268;DHT22;6702;47.068;15.458;2022-12-15T03:49:23;0.80;99.90
13268;DHT22;6702;47.068;15.458;2022-12-15T03:52:26;0.90;99.90
13268;DHT22;6702;47.068;15.458;2022-12-15T03:55:30;0.90;99.90
13268;DHT22;6702;47.068;15.458;2022-12-15T03:58:33;0.90;99.90
13268;DHT22;6702;47.068;15.458;2022-12-15T04:01:36;0.90;99.90
13268;DHT22;6702;47.068;15.458;2022-12-15T04:04:41;1.00;99.90
13268;DHT22;6702;47.068;15.458;2022-12-15T04:07:44;1.00;99.90
13268;DHT22;6702;47.068;15.458;2022-12-15T04:10:47;1.00;99.90
13268;DHT22;6702;47.068;15.458;2022-12-15T04:13:50;1.00;99.90
13268;DHT22;6702;47.068;15.458;2022-12-15T04:16:53;0.90;99.90
13268;DHT22;6702;47.068;15.458;2022-12-15T04:19:58;0.90;99.90
13268;DHT22;6702;47.068;15.458;2022-12-15T04:23:13;0.90;99.90
13268;DHT22;6702;47.068;15.458;2022-12-15T04:26:16;0.80;99.90
13268;DHT22;6702;47.068;15.458;2022-12-15T04:29:36;0.80;99.90
13268;DHT22;6702;47.068;15.458;2022-12-15T04:32:58;0.70;99.90
13268;DHT22;6702;47.068;15.458;2022-12-15T04:36:21;0.70;99.90
13268;DHT22;6702;47.068;15.458;2022-12-15T04:39:44;0.70;99.90
13268;DHT22;6702;47.068;15.458;2022-12-15T04:43:06;0.60;99.90
13268;DHT22;6702;47.068;15.458;2022-12-15T04:46:27;0.60;99.90
13268;DHT22;6702;47.068;15.458;2022-12-15T04:49:47;0.60;99.90
13268;DHT22;6702;47.068;15.458;2022-12-15T04:53:10;0.50;99.90
13268;DHT22;6702;47.068;15.458;2022-12-15T04:56:32;0.60;99.90
13268;DHT22;6702;47.068;15.458;2022-12-15T04:59:52;0.60;99.90
13268;DHT22;6702;47.068;15.458;2022-12-15T05:03:13;0.60;99.90
13268;DHT22;6702;47.068;15.458;2022-12-15T05:06:33;0.50;99.90
13268;DHT22;6702;47.068;15.458;2022-12-15T05:09:55;0.50;99.90
13268;DHT22;6702;47.068;15.458;2022-12-15T05:13:16;0.50;99.90
13268;DHT22;6702;47.068;15.458;2022-12-15T05:16:36;0.30;99.90
13268;DHT22;6702;47.068;15.458;2022-12-15T05:19:57;0.30;99.90
13268;DHT22;6702;47.068;15.458;2022-12-15T05:23:17;0.30;99.90
13268;DHT22;6702;47.068;15.458;2022-12-15T05:26:39;0.30;99.90
13268;DHT22;6702;47.068;15.458;2022-12-15T05:29:59;0.30;99.90
13268;DHT22;6702;47.068;15.458;2022-12-15T05:33:19;0.30;99.90
13268;DHT22;6702;47.068;15.458;2022-12-15T05:36:23;0.30;99.90
13268;DHT22;6702;47.068;15.458;2022-12-15T05:39:26;0.30;99.90
13268;DHT22;6702;47.068;15.458;2022-12-15T05:42:31;0.20;99.90
13268;DHT22;6702;47.068;15.458;2022-12-15T05:45:34;0.20;99.90
13268;DHT22;6702;47.068;15.458;2022-12-15T05:48:37;0.20;99.90
13268;DHT22;6702;47.068;15.458;2022-12-15T05:51:42;0.20;99.90
13268;DHT22;6702;47.068;15.458;2022-12-15T05:54:46;0.20;99.90
13268;DHT22;6702;47.068;15.458;2022-12-15T05:57:51;0.10;99.90
13268;DHT22;6702;47.068;15.458;2022-12-15T06:01:02;0.10;99.90
13268;DHT22;6702;47.068;15.458;2022-12-15T06:04:05;0.10;99.90
13268;DHT22;6702;47.068;15.458;2022-12-15T06:07:09;0.20;99.90
13268;DHT22;6702;47.068;15.458;2022-12-15T06:10:12;0.20;99.90
13268;DHT22;6702;47.068;15.458;2022-12-15T06:13:16;0.20;99.90
13268;DHT22;6702;47.068;15.458;2022-12-15T06:16:22;0.30;99.90
13268;DHT22;6702;47.068;15.458;2022-12-15T06:19:25;0.20;99.90
13268;DHT22;6702;47.068;15.458;2022-12-15T06:22:28;0.20;99.90
13268;DHT22;6702;47.068;15.458;2022-12-15T06:25:32;0.20;99.90
13268;DHT22;6702;47.068;15.458;2022-12-15T06:28:36;0.20;99.90
13268;DHT22;6702;47.068;15.458;2022-12-15T06:31:40;0.10;99.90
13268;DHT22;6702;47.068;15.458;2022-12-15T06:34:43;0.10;99.90
13268;DHT22;6702;47.068;15.458;2022-12-15T06:37:46;0.10;99.90
13268;DHT22;6702;47.068;15.458;2022-12-15T06:40:54;0.10;99.90
13268;DHT22;6702;47.068;15.458;2022-12-15T06:43:59;0.10;99.90
13268;DHT22;6702;47.068;15.458;2022-12-15T06:47:02;0.20;99.90
13268;DHT22;6702;47.068;15.458;2022-12-15T06:50:06;0.20;99.90
13268;DHT22;6702;47.068;15.458;2022-12-15T06:53:09;0.20;99.90
13268;DHT22;6702;47.068;15.458;2022-12-15T06:56:15;0.20;99.90
13268;DHT22;6702;47.068;15.458;2022-12-15T06:59:20;0.20;99.90
13268;DHT22;6702;47.068;15.458;2022-12-15T07:02:23;0.20;99.90
13268;DHT22;6702;47.068;15.458;2022-12-15T07:05:30;0.20;99.90
13268;DHT22;6702;47.068;15.458;2022-12-15T07:08:33;0.20;99.90
13268;DHT22;6702;47.068;15.458;2022-12-15T07:11:42;0.20;99.90
13268;DHT22;6702;47.068;15.458;2022-12-15T07:14:47;0.20;99.90
13268;DHT22;6702;47.068;15.458;2022-12-15T07:17:54;0.20;99.90
13268;DHT22;6702;47.068;15.458;2022-12-15T07:21:01;0.30;99.90
13268;DHT22;6702;47.068;15.458;2022-12-15T07:24:05;0.40;99.90
13268;DHT22;6702;47.068;15.458;2022-12-15T07:27:09;0.30;99.90
13268;DHT22;6702;47.068;15.458;2022-12-15T07:30:15;0.40;99.90
13268;DHT22;6702;47.068;15.458;2022-12-15T07:33:18;0.40;99.90
13268;DHT22;6702;47.068;15.458;2022-12-15T07:36:21;0.50;99.90
13268;DHT22;6702;47.068;15.458;2022-12-15T07:39:24;0.50;99.90
13268;DHT22;6702;47.068;15.458;2022-12-15T07:42:28;0.60;99.90
13268;DHT22;6702;47.068;15.458;2022-12-15T07:45:33;0.60;99.90
13268;DHT22;6702;47.068;15.458;2022-12-15T07:48:36;0.70;99.90
13268;DHT22;6702;47.068;15.458;2022-12-15T07:51:39;0.70;99.90
13268;DHT22;6702;47.068;15.458;2022-12-15T07:54:42;0.70;99.90
13268;DHT22;6702;47.068;15.458;2022-12-15T07:57:46;0.70;99.90
13268;DHT22;6702;47.068;15.458;2022-12-15T08:00:50;0.80;99.90
13268;DHT22;6702;47.068;15.458;2022-12-15T08:03:54;0.80;99.90
13268;DHT22;6702;47.068;15.458;2022-12-15T08:06:57;0.90;99.90
13268;DHT22;6702;47.068;15.458;2022-12-15T08:10:01;1.00;99.90
13268;DHT22;6702;47.068;15.458;2022-12-15T08:13:04;1.10;99.90
13268;DHT22;6702;47.068;15.458;2022-12-15T08:16:08;1.20;99.90
13268;DHT22;6702;47.068;15.458;2022-12-15T08:19:13;1.20;99.90
13268;DHT22;6702;47.068;15.458;2022-12-15T08:22:17;1.30;99.90
13268;DHT22;6702;47.068;15.458;2022-12-15T08:25:20;1.40;99.90
13268;DHT22;6702;47.068;15.458;2022-12-15T08:28:23;1.50;99.90
13268;DHT22;6702;47.068;15.458;2022-12-15T08:31:28;1.60;99.90
13268;DHT22;6702;47.068;15.458;2022-12-15T08:34:33;1.70;99.90
13268;DHT22;6702;47.068;15.458;2022-12-15T08:37:37;1.70;99.90
13268;DHT22;6702;47.068;15.458;2022-12-15T08:40:41;1.80;99.90
13268;DHT22;6702;47.068;15.458;2022-12-15T08:43:45;1.80;99.90
13268;DHT22;6702;47.068;15.458;2022-12-15T08:46:51;1.80;99.90
13268;DHT22;6702;47.068;15.458;2022-12-15T08:49:54;1.90;99.90
13268;DHT22;6702;47.068;15.458;2022-12-15T08:52:57;2.00;99.90
13268;DHT22;6702;47.068;15.458;2022-12-15T08:56:22;2.10;99.90
13268;DHT22;6702;47.068;15.458;2022-12-15T08:59:26;2.20;99.90
13268;DHT22;6702;47.068;15.458;2022-12-15T09:02:31;2.40;99.70
13268;DHT22;6702;47.068;15.458;2022-12-15T09:05:34;2.40;99.40
13268;DHT22;6702;47.068;15.458;2022-12-15T09:08:37;2.50;99.20
13268;DHT22;6702;47.068;15.458;2022-12-15T09:11:41;2.70;99.20
13268;DHT22;6702;47.068;15.458;2022-12-15T09:14:44;2.70;98.90
13268;DHT22;6702;47.068;15.458;2022-12-15T09:17:48;2.80;98.60
13268;DHT22;6702;47.068;15.458;2022-12-15T09:20:52;2.90;98.70
13268;DHT22;6702;47.068;15.458;2022-12-15T09:23:57;2.90;98.60
13268;DHT22;6702;47.068;15.458;2022-12-15T09:27:02;2.80;98.30
13268;DHT22;6702;47.068;15.458;2022-12-15T09:30:07;2.90;98.70
13268;DHT22;6702;47.068;15.458;2022-12-15T09:33:11;2.90;98.30
13268;DHT22;6702;47.068;15.458;2022-12-15T09:36:14;3.00;98.60
13268;DHT22;6702;47.068;15.458;2022-12-15T09:39:18;3.10;98.60
13268;DHT22;6702;47.068;15.458;2022-12-15T09:42:23;3.10;98.40
13268;DHT22;6702;47.068;15.458;2022-12-15T09:45:32;3.30;98.30
13268;DHT22;6702;47.068;15.458;2022-12-15T09:48:39;3.40;98.30
13268;DHT22;6702;47.068;15.458;2022-12-15T09:51:52;3.70;98.10
13268;DHT22;6702;47.068;15.458;2022-12-15T09:54:58;4.30;97.80
13268;DHT22;6702;47.068;15.458;2022-12-15T09:58:07;4.90;96.60
13268;DHT22;6702;47.068;15.458;2022-12-15T10:01:22;5.20;95.00
13268;DHT22;6702;47.068;15.458;2022-12-15T10:04:37;5.50;94.60
13268;DHT22;6702;47.068;15.458;2022-12-15T10:07:44;6.00;93.90
13268;DHT22;6702;47.068;15.458;2022-12-15T10:10:54;6.20;93.20
13268;DHT22;6702;47.068;15.458;2022-12-15T10:14:03;6.40;92.60
13268;DHT22;6702;47.068;15.458;2022-12-15T10:17:17;6.40;92.30
13268;DHT22;6702;47.068;15.458;2022-12-15T10:20:25;6.60;92.10
13268;DHT22;6702;47.068;15.458;2022-12-15T10:23:28;7.00;91.70
13268;DHT22;6702;47.068;15.458;2022-12-15T10:26:33;7.00;90.60
13268;DHT22;6702;47.068;15.458;2022-12-15T10:29:42;6.70;90.50
13268;DHT22;6702;47.068;15.458;2022-12-15T10:32:57;6.40;91.10
13268;DHT22;6702;47.068;15.458;2022-12-15T10:36:09;6.40;91.30
13268;DHT22;6702;47.068;15.458;2022-12-15T10:39:12;6.60;91.20
13268;DHT22;6702;47.068;15.458;2022-12-15T10:42:20;6.40;91.50
13268;DHT22;6702;47.068;15.458;2022-12-15T10:45:30;6.60;91.40
13268;DHT22;6702;47.068;15.458;2022-12-15T10:48:36;6.30;91.90
13268;DHT22;6702;47.068;15.458;2022-12-15T10:51:44;6.00;92.50
13268;DHT22;6702;47.068;15.458;2022-12-15T10:54:51;6.20;92.10
13268;DHT22;6702;47.068;15.458;2022-12-15T10:57:57;6.10;92.50
13268;DHT22;6702;47.068;15.458;2022-12-15T11:01:06;6.40;92.20
13268;DHT22;6702;47.068;15.458;2022-12-15T11:04:24;6.20;92.20
13268;DHT22;6702;47.068;15.458;2022-12-15T11:07:33;6.30;92.20
13268;DHT22;6702;47.068;15.458;2022-12-15T11:10:48;6.40;92.00
13268;DHT22;6702;47.068;15.458;2022-12-15T11:14:13;6.50;92.00
13268;DHT22;6702;47.068;15.458;2022-12-15T11:17:18;7.90;91.50
13268;DHT22;6702;47.068;15.458;2022-12-15T11:20:26;9.60;86.80
13268;DHT22;6702;47.068;15.458;2022-12-15T11:23:47;9.80;81.80
13268;DHT22;6702;47.068;15.458;2022-12-15T11:26:55;9.20;81.70
13268;DHT22;6702;47.068;15.458;2022-12-15T11:30:03;9.20;82.40
13268;DHT22;6702;47.068;15.458;2022-12-15T11:33:07;10.70;79.10
13268;DHT22;6702;47.068;15.458;2022-12-15T11:36:18;13.30;69.90
13268;DHT22;6702;47.068;15.458;2022-12-15T11:39:40;15.20;58.70
13268;DHT22;6702;47.068;15.458;2022-12-15T11:43:00;16.40;52.40
13268;DHT22;6702;47.068;15.458;2022-12-15T11:46:17;17.70;46.70
13268;DHT22;6702;47.068;15.458;2022-12-15T11:49:48;18.30;42.80
13268;DHT22;6702;47.068;15.458;2022-12-15T11:53:09;18.20;40.20
13268;DHT22;6702;47.068;15.458;2022-12-15T11:56:23;18.00;39.80
13268;DHT22;6702;47.068;15.458;2022-12-15T11:59:41;17.30;40.20
13268;DHT22;6702;47.068;15.458;2022-12-15T12:02:58;16.00;41.00
13268;DHT22;6702;47.068;15.458;2022-12-15T12:06:09;15.50;42.80
13268;DHT22;6702;47.068;15.458;2022-12-15T12:09:27;15.90;43.10
13268;DHT22;6702;47.068;15.458;2022-12-15T12:12:37;15.70;41.70
13268;DHT22;6702;47.068;15.458;2022-12-15T12:15:49;15.00;42.70
13268;DHT22;6702;47.068;15.458;2022-12-15T12:19:00;14.00;44.00
13268;DHT22;6702;47.068;15.458;2022-12-15T12:22:10;12.80;46.00
13268;DHT22;6702;47.068;15.458;2022-12-15T12:25:16;11.90;48.30
13268;DHT22;6702;47.068;15.458;2022-12-15T12:28:27;12.10;49.80
13268;DHT22;6702;47.068;15.458;2022-12-15T12:31:42;12.90;48.10
13268;DHT22;6702;47.068;15.458;2022-12-15T12:34:57;13.50;47.10
13268;DHT22;6702;47.068;15.458;2022-12-15T12:38:25;13.50;46.40
13268;DHT22;6702;47.068;15.458;2022-12-15T12:41:37;13.30;46.30
13268;DHT22;6702;47.068;15.458;2022-12-15T12:44:42;12.50;47.50
13268;DHT22;6702;47.068;15.458;2022-12-15T12:47:51;12.10;48.90
13268;DHT22;6702;47.068;15.458;2022-12-15T12:51:10;11.50;49.70
13268;DHT22;6702;47.068;15.458;2022-12-15T12:54:42;11.40;51.30
13268;DHT22;6702;47.068;15.458;2022-12-15T12:57:51;11.50;50.50
13268;DHT22;6702;47.068;15.458;2022-12-15T13:01:11;11.60;50.60
13268;DHT22;6702;47.068;15.458;2022-12-15T13:04:37;11.50;50.50
13268;DHT22;6702;47.068;15.458;2022-12-15T13:07:40;11.20;51.20
13268;DHT22;6702;47.068;15.458;2022-12-15T13:10:45;11.40;51.90
13268;DHT22;6702;47.068;15.458;2022-12-15T13:13:52;12.50;51.10
13268;DHT22;6702;47.068;15.458;2022-12-15T13:17:02;13.80;48.30
13268;DHT22;6702;47.068;15.458;2022-12-15T13:20:28;14.00;46.00
13268;DHT22;6702;47.068;15.458;2022-12-15T13:23:39;12.90;47.20
13268;DHT22;6702;47.068;15.458;2022-12-15T13:26:43;11.00;50.40
13268;DHT22;6702;47.068;15.458;2022-12-15T13:30:14;9.70;54.30
13268;DHT22;6702;47.068;15.458;2022-12-15T13:33:19;8.50;57.60
13268;DHT22;6702;47.068;15.458;2022-12-15T13:40:15;6.70;64.50
13268;DHT22;6702;47.068;15.458;2022-12-15T13:43:40;6.30;66.90
13268;DHT22;6702;47.068;15.458;2022-12-15T13:46:46;5.70;71.00
13268;DHT22;6702;47.068;15.458;2022-12-15T13:49:57;5.50;73.10
13268;DHT22;6702;47.068;15.458;2022-12-15T13:53:05;5.40;74.80
13268;DHT22;6702;47.068;15.458;2022-12-15T13:56:27;5.30;77.00
13268;DHT22;6702;47.068;15.458;2022-12-15T13:59:40;5.10;79.20
13268;DHT22;6702;47.068;15.458;2022-12-15T14:02:44;5.00;81.00
13268;DHT22;6702;47.068;15.458;2022-12-15T14:05:52;4.80;83.20
13268;DHT22;6702;47.068;15.458;2022-12-15T14:08:56;4.70;84.90
13268;DHT22;6702;47.068;15.458;2022-12-15T14:12:01;4.60;86.80
13268;DHT22;6702;47.068;15.458;2022-12-15T14:15:04;4.60;88.00
13268;DHT22;6702;47.068;15.458;2022-12-15T14:18:24;4.70;89.10
13268;DHT22;6702;47.068;15.458;2022-12-15T14:21:28;4.70;90.00
13268;DHT22;6702;47.068;15.458;2022-12-15T14:24:33;4.70;90.30
13268;DHT22;6702;47.068;15.458;2022-12-15T14:27:41;4.70;90.40
13268;DHT22;6702;47.068;15.458;2022-12-15T14:30:44;4.60;90.80
13268;DHT22;6702;47.068;15.458;2022-12-15T14:33:58;4.70;91.10
13268;DHT22;6702;47.068;15.458;2022-12-15T14:37:07;4.60;91.40
13268;DHT22;6702;47.068;15.458;2022-12-15T14:40:14;4.60;91.60
13268;DHT22;6702;47.068;15.458;2022-12-15T14:43:21;4.60;91.80
13268;DHT22;6702;47.068;15.458;2022-12-15T14:46:26;4.60;91.90
13268;DHT22;6702;47.068;15.458;2022-12-15T14:49:32;4.60;92.20
13268;DHT22;6702;47.068;15.458;2022-12-15T14:52:40;4.60;92.30
13268;DHT22;6702;47.068;15.458;2022-12-15T14:55:45;4.60;92.40
13268;DHT22;6702;47.068;15.458;2022-12-15T14:58:55;4.60;92.50
13268;DHT22;6702;47.068;15.458;2022-12-15T15:02:08;4.60;92.60
13268;DHT22;6702;47.068;15.458;2022-12-15T15:05:25;4.60;92.70
13268;DHT22;6702;47.068;15.458;2022-12-15T15:08:32;4.60;92.80
13268;DHT22;6702;47.068;15.458;2022-12-15T15:11:39;4.60;92.90
13268;DHT22;6702;47.068;15.458;2022-12-15T15:14:45;4.60;92.90
13268;DHT22;6702;47.068;15.458;2022-12-15T15:17:50;4.60;93.00
13268;DHT22;6702;47.068;15.458;2022-12-15T15:20:57;4.60;93.10
13268;DHT22;6702;47.068;15.458;2022-12-15T15:24:03;4.60;93.20
13268;DHT22;6702;47.068;15.458;2022-12-15T15:27:24;4.60;93.30
13268;DHT22;6702;47.068;15.458;2022-12-15T15:30:28;4.60;93.30
13268;DHT22;6702;47.068;15.458;2022-12-15T15:33:32;4.50;93.30
13268;DHT22;6702;47.068;15.458;2022-12-15T15:36:36;4.50;93.50
13268;DHT22;6702;47.068;15.458;2022-12-15T15:39:41;4.40;93.60
13268;DHT22;6702;47.068;15.458;2022-12-15T15:42:45;4.40;93.80
13268;DHT22;6702;47.068;15.458;2022-12-15T15:45:56;4.40;93.90
13268;DHT22;6702;47.068;15.458;2022-12-15T15:49:02;4.40;94.10
13268;DHT22;6702;47.068;15.458;2022-12-15T15:52:08;4.40;94.20
13268;DHT22;6702;47.068;15.458;2022-12-15T15:55:20;4.40;94.30
13268;DHT22;6702;47.068;15.458;2022-12-15T15:58:26;4.30;94.40
13268;DHT22;6702;47.068;15.458;2022-12-15T16:01:30;4.30;94.60
13268;DHT22;6702;47.068;15.458;2022-12-15T16:04:33;4.30;94.60
13268;DHT22;6702;47.068;15.458;2022-12-15T16:07:38;4.30;94.70
13268;DHT22;6702;47.068;15.458;2022-12-15T16:10:45;4.20;95.10
13268;DHT22;6702;47.068;15.458;2022-12-15T16:13:49;4.20;95.40
13268;DHT22;6702;47.068;15.458;2022-12-15T16:16:52;4.20;95.50
13268;DHT22;6702;47.068;15.458;2022-12-15T16:19:55;4.20;95.50
13268;DHT22;6702;47.068;15.458;2022-12-15T16:23:00;4.20;95.60
13268;DHT22;6702;47.068;15.458;2022-12-15T16:26:12;4.30;95.80
13268;DHT22;6702;47.068;15.458;2022-12-15T16:29:17;4.20;95.90
13268;DHT22;6702;47.068;15.458;2022-12-15T16:32:21;4.20;96.00
13268;DHT22;6702;47.068;15.458;2022-12-15T16:35:25;4.20;96.10
13268;DHT22;6702;47.068;15.458;2022-12-15T16:38:29;4.20;96.20
13268;DHT22;6702;47.068;15.458;2022-12-15T16:41:35;4.20;96.40
13268;DHT22;6702;47.068;15.458;2022-12-15T16:44:38;4.20;96.50
13268;DHT22;6702;47.068;15.458;2022-12-15T16:47:41;4.20;96.50
13268;DHT22;6702;47.068;15.458;2022-12-15T16:50:48;4.20;96.50
13268;DHT22;6702;47.068;15.458;2022-12-15T16:53:52;4.30;96.50
13268;DHT22;6702;47.068;15.458;2022-12-15T16:56:57;4.20;96.50
13268;DHT22;6702;47.068;15.458;2022-12-15T17:00:13;4.20;96.70
13268;DHT22;6702;47.068;15.458;2022-12-15T17:03:17;4.20;96.70
13268;DHT22;6702;47.068;15.458;2022-12-15T17:06:24;4.10;96.80
13268;DHT22;6702;47.068;15.458;2022-12-15T17:09:28;3.90;96.80
13268;DHT22;6702;47.068;15.458;2022-12-15T17:12:37;3.60;97.30
13268;DHT22;6702;47.068;15.458;2022-12-15T17:15:40;3.60;97.50
13268;DHT22;6702;47.068;15.458;2022-12-15T17:18:44;3.50;97.60
13268;DHT22;6702;47.068;15.458;2022-12-15T17:21:49;3.60;98.20
13268;DHT22;6702;47.068;15.458;2022-12-15T17:24:53;3.50;97.90
13268;DHT22;6702;47.068;15.458;2022-12-15T17:28:03;3.50;98.20
13268;DHT22;6702;47.068;15.458;2022-12-15T17:31:10;3.50;98.20
13268;DHT22;6702;47.068;15.458;2022-12-15T17:34:26;3.50;98.60
13268;DHT22;6702;47.068;15.458;2022-12-15T17:37:30;3.50;98.50
13268;DHT22;6702;47.068;15.458;2022-12-15T17:40:36;3.50;98.50
13268;DHT22;6702;47.068;15.458;2022-12-15T17:43:42;3.50;98.60
13268;DHT22;6702;47.068;15.458;2022-12-15T17:46:45;3.60;98.60
13268;DHT22;6702;47.068;15.458;2022-12-15T17:49:49;3.60;98.60
13268;DHT22;6702;47.068;15.458;2022-12-15T17:52:53;3.60;98.60
13268;DHT22;6702;47.068;15.458;2022-12-15T17:55:57;3.60;98.60
13268;DHT22;6702;47.068;15.458;2022-12-15T17:59:01;3.70;98.60
13268;DHT22;6702;47.068;15.458;2022-12-15T18:02:09;3.70;98.60
13268;DHT22;6702;47.068;15.458;2022-12-15T18:05:14;3.70;98.60
13268;DHT22;6702;47.068;15.458;2022-12-15T18:08:20;3.80;98.70
13268;DHT22;6702;47.068;15.458;2022-12-15T18:11:24;3.70;98.60
13268;DHT22;6702;47.068;15.458;2022-12-15T18:14:28;3.70;98.60
13268;DHT22;6702;47.068;15.458;2022-12-15T18:17:32;3.70;98.60
13268;DHT22;6702;47.068;15.458;2022-12-15T18:20:35;3.70;98.60
13268;DHT22;6702;47.068;15.458;2022-12-15T18:23:39;3.70;98.60
13268;DHT22;6702;47.068;15.458;2022-12-15T18:26:44;3.60;98.80
13268;DHT22;6702;47.068;15.458;2022-12-15T18:29:50;3.50;99.40
13268;DHT22;6702;47.068;15.458;2022-12-15T18:32:55;3.50;99.70
13268;DHT22;6702;47.068;15.458;2022-12-15T18:36:01;3.60;99.70
13268;DHT22;6702;47.068;15.458;2022-12-15T18:39:14;3.60;99.70
13268;DHT22;6702;47.068;15.458;2022-12-15T18:42:19;3.60;99.80
13268;DHT22;6702;47.068;15.458;2022-12-15T18:45:25;3.50;99.90
13268;DHT22;6702;47.068;15.458;2022-12-15T18:48:31;3.60;99.90
13268;DHT22;6702;47.068;15.458;2022-12-15T18:51:36;3.60;99.90
13268;DHT22;6702;47.068;15.458;2022-12-15T18:54:40;3.60;99.90
13268;DHT22;6702;47.068;15.458;2022-12-15T18:57:44;3.60;99.90
13268;DHT22;6702;47.068;15.458;2022-12-15T19:00:50;3.50;99.90
13268;DHT22;6702;47.068;15.458;2022-12-15T19:03:55;3.50;99.90
13268;DHT22;6702;47.068;15.458;2022-12-15T19:06:59;3.50;99.90
13268;DHT22;6702;47.068;15.458;2022-12-15T19:10:11;3.50;99.90
13268;DHT22;6702;47.068;15.458;2022-12-15T19:13:18;3.50;99.90
13268;DHT22;6702;47.068;15.458;2022-12-15T19:16:25;3.50;99.90
13268;DHT22;6702;47.068;15.458;2022-12-15T19:19:49;3.50;99.90
13268;DHT22;6702;47.068;15.458;2022-12-15T19:23:12;3.50;99.90
13268;DHT22;6702;47.068;15.458;2022-12-15T19:26:20;3.40;99.90
13268;DHT22;6702;47.068;15.458;2022-12-15T19:29:27;3.40;99.90
13268;DHT22;6702;47.068;15.458;2022-12-15T19:32:33;3.40;99.90
13268;DHT22;6702;47.068;15.458;2022-12-15T19:35:38;3.40;99.90
13268;DHT22;6702;47.068;15.458;2022-12-15T19:38:43;3.40;99.90
13268;DHT22;6702;47.068;15.458;2022-12-15T19:41:49;3.30;99.90
13268;DHT22;6702;47.068;15.458;2022-12-15T19:44:57;3.20;99.90
13268;DHT22;6702;47.068;15.458;2022-12-15T19:48:04;3.30;99.90
13268;DHT22;6702;47.068;15.458;2022-12-15T19:51:12;3.30;99.90
13268;DHT22;6702;47.068;15.458;2022-12-15T19:54:21;3.30;99.90
13268;DHT22;6702;47.068;15.458;2022-12-15T19:57:25;3.40;99.90
13268;DHT22;6702;47.068;15.458;2022-12-15T20:00:29;3.40;99.90
13268;DHT22;6702;47.068;15.458;2022-12-15T20:03:34;3.40;99.90
13268;DHT22;6702;47.068;15.458;2022-12-15T20:06:40;3.40;99.90
13268;DHT22;6702;47.068;15.458;2022-12-15T20:09:45;3.40;99.90
13268;DHT22;6702;47.068;15.458;2022-12-15T20:12:49;3.50;99.90
13268;DHT22;6702;47.068;15.458;2022-12-15T20:15:53;3.50;99.90